< < Back
Terminal Aerodrome Forecast


Current Version              Previous Versions:   1  2  3  4  5  6  7  8  9  

Terminal Aerodrome Forecast

614
FTUS42 KGSP 252329
TAFAVL
TAF
KAVL 252329Z 2600/2624 16003KT P6SM BKN060
     FM260500 16003KT P6SM VCSH BKN250
     FM260900 VRB02KT 3SM BR SCT008 BKN015
      TEMPO 2610/2612 2SM BR BKN008 OVC015
     FM261500 17004KT P6SM SCT045 BKN250 PROB30 2615/2621 4SM -TSRA
      OVC025CB
     FM262200 19005KT P6SM -SHRA VCTS BKN050CB=



Latest METAR

979
SAUS70 KWBC 261700 RRD
MTRAVL
METAR KAVL 261654Z 21008KT 10SM CLR 28/16 A3013 RMK AO2 SLP172
T02830161


USA.gov is the U.S. government's official web portal to all federal, state and local government web resources and services.